createdAt,value
2023-05-13T05:01:02.290Z,1005.97
2023-05-13T05:02:02.158Z,1005.91
2023-05-13T05:03:02.073Z,1005.94
2023-05-13T05:04:02.073Z,1005.95
2023-05-13T05:05:02.024Z,1005.97
2023-05-13T05:06:02.014Z,1006.01
2023-05-13T05:07:01.997Z,1005.95
2023-05-13T05:08:02.004Z,1005.97
2023-05-13T05:09:02.002Z,1006.07
2023-05-13T05:10:01.987Z,1005.97
2023-05-13T05:11:01.977Z,1006.01
2023-05-13T05:12:06.960Z,1006.06
2023-05-13T05:13:01.965Z,1006.08
2023-05-13T05:14:01.934Z,1006.03
2023-05-13T05:15:01.916Z,1006.03
2023-05-13T05:16:01.959Z,1006.12
2023-05-13T05:17:01.986Z,1006.10
2023-05-13T05:18:02.037Z,1006.14
2023-05-13T05:19:01.958Z,1006.11
2023-05-13T05:20:01.861Z,1006.13
2023-05-13T05:21:02.670Z,1006.19
2023-05-13T05:22:01.870Z,1006.12
2023-05-13T05:23:06.868Z,1006.18
2023-05-13T05:24:01.829Z,1006.19
2023-05-13T05:25:01.798Z,1006.18
2023-05-13T05:26:11.151Z,1006.20
2023-05-13T05:27:01.780Z,1006.19
2023-05-13T05:28:01.817Z,1006.16
2023-05-13T05:29:01.759Z,1006.17
2023-05-13T05:30:01.744Z,1006.21
2023-05-13T05:31:01.762Z,1006.14
2023-05-13T05:32:01.785Z,1006.18
2023-05-13T05:33:01.772Z,1006.18
2023-05-13T05:34:06.775Z,1006.19
2023-05-13T05:35:01.686Z,1006.19
2023-05-13T05:36:01.679Z,1006.19
2023-05-13T05:37:01.667Z,1006.20
2023-05-13T05:38:01.655Z,1006.19
2023-05-13T05:39:01.640Z,1006.28
2023-05-13T05:40:01.644Z,1006.16
2023-05-13T05:41:01.619Z,1006.16
2023-05-13T05:42:01.611Z,1006.26
2023-05-13T05:43:01.601Z,1006.23
2023-05-13T05:44:01.583Z,1006.27
2023-05-13T05:45:06.596Z,1006.25
2023-05-13T05:46:01.657Z,1006.31
2023-05-13T05:47:01.565Z,1006.26
2023-05-13T05:48:01.570Z,1006.32
2023-05-13T05:49:01.551Z,1006.35
2023-05-13T05:50:01.524Z,1006.39
2023-05-13T05:51:01.506Z,1006.32
2023-05-13T05:52:01.512Z,1006.35
2023-05-13T05:53:01.493Z,1006.40
2023-05-13T05:54:01.471Z,1006.39
2023-05-13T05:55:01.523Z,1006.39
2023-05-13T05:56:06.487Z,1006.42
2023-05-13T05:57:01.457Z,1006.33
2023-05-13T05:58:01.571Z,1006.32
2023-05-13T05:59:01.419Z,1006.30
2023-05-13T06:00:01.434Z,1006.40
2023-05-13T06:01:01.408Z,1006.34
2023-05-13T06:02:01.445Z,1006.39
2023-05-13T06:03:01.620Z,1006.36
2023-05-13T06:04:01.516Z,1006.45
2023-05-13T06:05:01.392Z,1006.41
2023-05-13T06:06:01.355Z,1006.44
2023-05-13T06:07:06.382Z,1006.43
2023-05-13T06:08:01.322Z,1006.43
2023-05-13T06:09:01.440Z,1006.46
2023-05-13T06:10:01.331Z,1006.50
2023-05-13T06:11:01.290Z,1006.56
2023-05-13T06:12:01.273Z,1006.51
2023-05-13T06:13:01.272Z,1006.46
2023-05-13T06:14:01.253Z,1006.47
2023-05-13T06:15:01.378Z,1006.47
2023-05-13T06:16:01.315Z,1006.49
2023-05-13T06:17:01.213Z,1006.50
2023-05-13T06:18:06.404Z,1006.55
2023-05-13T06:19:01.293Z,1006.51
2023-05-13T06:20:01.220Z,1006.48
2023-05-13T06:21:01.210Z,1006.47
2023-05-13T06:22:03.869Z,1006.49
2023-05-13T06:23:01.191Z,1006.49
2023-05-13T06:24:01.134Z,1006.49
2023-05-13T06:25:01.139Z,1006.49
2023-05-13T06:26:01.135Z,1006.46
2023-05-13T06:27:01.103Z,1006.48
2023-05-13T06:28:03.039Z,1006.48
2023-05-13T06:29:06.114Z,1006.46
2023-05-13T06:30:01.179Z,1006.52
2023-05-13T06:31:01.098Z,1006.51
2023-05-13T06:32:01.068Z,1006.44
2023-05-13T06:33:02.386Z,1006.45
2023-05-13T06:34:01.023Z,1006.51
2023-05-13T06:35:01.115Z,1006.43
2023-05-13T06:36:01.052Z,1006.51
2023-05-13T06:37:01.058Z,1006.53
2023-05-13T06:38:00.994Z,1006.48
2023-05-13T06:39:00.969Z,1006.46
2023-05-13T06:40:05.985Z,1006.47
2023-05-13T06:41:00.953Z,1006.54
2023-05-13T06:42:00.934Z,1006.50
2023-05-13T06:43:00.923Z,1006.55
2023-05-13T06:44:00.930Z,1006.54
2023-05-13T06:45:00.909Z,1006.51
2023-05-13T06:46:00.908Z,1006.48
2023-05-13T06:47:00.905Z,1006.50
2023-05-13T06:48:00.906Z,1006.56
2023-05-13T06:49:00.863Z,1006.52
2023-05-13T06:50:00.887Z,1006.55
2023-05-13T06:51:05.855Z,1006.52
2023-05-13T06:52:00.830Z,1006.49
2023-05-13T06:53:00.857Z,1006.45
2023-05-13T06:54:00.822Z,1006.47
2023-05-13T06:55:00.803Z,1006.42
2023-05-13T06:56:00.774Z,1006.42
2023-05-13T06:57:00.776Z,1006.47
2023-05-13T06:58:00.794Z,1006.57
2023-05-13T06:59:00.758Z,1006.53
2023-05-13T07:00:00.745Z,1006.50
2023-05-13T07:01:00.756Z,1006.52
2023-05-13T07:02:05.730Z,1006.50
2023-05-13T07:03:00.749Z,1006.44
2023-05-13T07:04:00.799Z,1006.48
2023-05-13T07:05:00.672Z,1006.48
2023-05-13T07:06:00.669Z,1006.51
2023-05-13T07:07:00.669Z,1006.54
2023-05-13T07:08:00.656Z,1006.55
2023-05-13T07:09:00.659Z,1006.50
2023-05-13T07:10:00.649Z,1006.57
2023-05-13T07:11:00.607Z,1006.59
2023-05-13T07:12:00.613Z,1006.55
2023-05-13T07:13:05.616Z,1006.61
2023-05-13T07:14:00.580Z,1006.52
2023-05-13T07:15:00.560Z,1006.55
2023-05-13T07:16:00.568Z,1006.60
2023-05-13T07:17:00.599Z,1006.50
2023-05-13T07:18:00.592Z,1006.46
2023-05-13T07:19:00.600Z,1006.48
2023-05-13T07:20:00.512Z,1006.43
2023-05-13T07:21:00.501Z,1006.49
2023-05-13T07:22:00.524Z,1006.59
2023-05-13T07:23:00.496Z,1006.58
2023-05-13T07:24:05.536Z,1006.56
2023-05-13T07:25:00.458Z,1006.53
2023-05-13T07:26:00.436Z,1006.48
2023-05-13T07:27:00.436Z,1006.52
2023-05-13T07:28:00.435Z,1006.44
2023-05-13T07:29:00.403Z,1006.44
2023-05-13T07:30:00.392Z,1006.48
2023-05-13T07:31:00.426Z,1006.46
2023-05-13T07:32:00.378Z,1006.40
2023-05-13T07:33:00.378Z,1006.47
2023-05-13T07:34:00.362Z,1006.43
2023-05-13T07:35:05.363Z,1006.53
2023-05-13T07:36:00.364Z,1006.44
2023-05-13T07:37:00.347Z,1006.45
2023-05-13T07:38:00.314Z,1006.49
2023-05-13T07:39:00.305Z,1006.42
2023-05-13T07:40:00.310Z,1006.48
2023-05-13T07:41:00.284Z,1006.54
2023-05-13T07:42:00.258Z,1006.50
2023-05-13T07:43:00.249Z,1006.48
2023-05-13T07:44:00.234Z,1006.46
2023-05-13T07:45:00.259Z,1006.45
2023-05-13T07:46:05.291Z,1006.43
2023-05-13T07:47:00.271Z,1006.50
2023-05-13T07:48:00.284Z,1006.50
2023-05-13T07:49:00.191Z,1006.48
2023-05-13T07:50:00.182Z,1006.53
2023-05-13T07:51:00.173Z,1006.53
2023-05-13T07:52:00.169Z,1006.44
2023-05-13T07:53:00.154Z,1006.52
2023-05-13T07:54:00.130Z,1006.48
2023-05-13T07:55:00.192Z,1006.41
2023-05-13T07:56:00.169Z,1006.46
2023-05-13T07:57:05.135Z,1006.46
2023-05-13T07:58:00.126Z,1006.40
2023-05-13T07:59:00.075Z,1006.50
2023-05-13T08:00:00.074Z,1006.51
2023-05-13T08:01:00.055Z,1006.44
2023-05-13T08:02:00.107Z,1006.47
2023-05-13T08:03:00.187Z,1006.48
2023-05-13T08:04:00.374Z,1006.47
2023-05-13T08:05:00.078Z,1006.51
2023-05-13T08:06:00.008Z,1006.44
2023-05-13T08:06:59.996Z,1006.42
2023-05-13T08:08:04.991Z,1006.51
2023-05-13T08:08:59.962Z,1006.52
2023-05-13T08:09:59.980Z,1006.39
2023-05-13T08:10:59.942Z,1006.47
2023-05-13T08:11:59.991Z,1006.39
2023-05-13T08:12:59.922Z,1006.43
2023-05-13T08:13:59.936Z,1006.43
2023-05-13T08:14:59.904Z,1006.42
2023-05-13T08:15:59.939Z,1006.51
2023-05-13T08:16:59.882Z,1006.55
2023-05-13T08:17:59.917Z,1006.45
2023-05-13T08:19:04.976Z,1006.43
2023-05-13T08:20:00.197Z,1006.45
2023-05-13T08:20:59.833Z,1006.43
2023-05-13T08:21:59.855Z,1006.38
2023-05-13T08:22:59.804Z,1006.39
2023-05-13T08:23:59.817Z,1006.44
2023-05-13T08:24:59.783Z,1006.41
2023-05-13T08:25:59.774Z,1006.41
2023-05-13T08:26:59.760Z,1006.35
2023-05-13T08:27:59.790Z,1006.37
2023-05-13T08:28:59.747Z,1006.32
2023-05-13T08:30:04.748Z,1006.31
2023-05-13T08:30:59.718Z,1006.33
2023-05-13T08:31:59.765Z,1006.31
2023-05-13T08:32:59.764Z,1006.33
2023-05-13T08:33:59.709Z,1006.34
2023-05-13T08:34:59.673Z,1006.22
2023-05-13T08:35:59.660Z,1006.25
2023-05-13T08:36:59.658Z,1006.26
2023-05-13T08:37:59.646Z,1006.27
2023-05-13T08:38:59.629Z,1006.32
2023-05-13T08:39:59.638Z,1006.33
2023-05-13T08:41:04.623Z,1006.35
2023-05-13T08:41:59.599Z,1006.24
2023-05-13T08:42:59.622Z,1006.25
2023-05-13T08:43:59.735Z,1006.24
2023-05-13T08:44:59.566Z,1006.31
2023-05-13T08:45:59.590Z,1006.25
2023-05-13T08:46:59.545Z,1006.31
2023-05-13T08:47:59.550Z,1006.29
2023-05-13T08:48:59.512Z,1006.26
2023-05-13T08:49:59.505Z,1006.37
2023-05-13T08:50:59.492Z,1006.35
2023-05-13T08:52:04.549Z,1006.30
2023-05-13T08:52:59.477Z,1006.33
2023-05-13T08:53:59.460Z,1006.34
2023-05-13T08:54:59.449Z,1006.42
2023-05-13T08:55:59.457Z,1006.40
2023-05-13T08:56:59.439Z,1006.36
2023-05-13T08:57:59.446Z,1006.28
2023-05-13T08:58:59.409Z,1006.29
2023-05-13T08:59:59.446Z,1006.36
2023-05-13T09:00:59.395Z,1006.25
2023-05-13T09:01:59.370Z,1006.30
2023-05-13T09:03:04.448Z,1006.40
2023-05-13T09:03:59.373Z,1006.31
2023-05-13T09:04:59.370Z,1006.37
2023-05-13T09:05:59.344Z,1006.30
2023-05-13T09:06:59.312Z,1006.29
2023-05-13T09:07:59.305Z,1006.32
2023-05-13T09:08:59.290Z,1006.40
2023-05-13T09:09:59.312Z,1006.38
2023-05-13T09:10:59.290Z,1006.32
2023-05-13T09:11:59.258Z,1006.31
2023-05-13T09:12:59.267Z,1006.30
2023-05-13T09:14:04.265Z,1006.35
2023-05-13T09:14:59.235Z,1006.31
2023-05-13T09:15:59.296Z,1006.34
2023-05-13T09:16:59.202Z,1006.25
2023-05-13T09:17:59.330Z,1006.34
2023-05-13T09:18:59.402Z,1006.35
2023-05-13T09:19:59.265Z,1006.30
2023-05-13T09:20:59.156Z,1006.31
2023-05-13T09:21:59.173Z,1006.34
2023-05-13T09:22:59.134Z,1006.33
2023-05-13T09:23:59.128Z,1006.32
2023-05-13T09:25:04.145Z,1006.34
2023-05-13T09:25:59.102Z,1006.32
2023-05-13T09:26:59.087Z,1006.32
2023-05-13T09:27:59.296Z,1006.29
2023-05-13T09:28:59.076Z,1006.31
2023-05-13T09:29:59.082Z,1006.30
2023-05-13T09:30:59.052Z,1006.30
2023-05-13T09:31:59.055Z,1006.34
2023-05-13T09:32:59.101Z,1006.28
2023-05-13T09:33:59.041Z,1006.48
2023-05-13T09:34:59.014Z,1006.34
2023-05-13T09:36:04.026Z,1006.24
2023-05-13T09:36:59.000Z,1006.20
2023-05-13T09:37:58.972Z,1006.34
2023-05-13T09:38:58.964Z,1006.27
2023-05-13T09:39:58.966Z,1006.33
2023-05-13T09:40:58.932Z,1006.25
2023-05-13T09:41:58.924Z,1006.23
2023-05-13T09:42:58.920Z,1006.22
2023-05-13T09:43:58.918Z,1006.10
2023-05-13T09:44:58.890Z,1006.09
2023-05-13T09:45:58.904Z,1006.03
2023-05-13T09:47:03.962Z,1006.10
2023-05-13T09:47:58.868Z,1006.08
2023-05-13T09:48:58.898Z,1006.08
2023-05-13T09:49:58.843Z,1006.07
2023-05-13T09:50:58.823Z,1006.10
2023-05-13T09:51:58.844Z,1006.13
2023-05-13T09:52:58.832Z,1006.06
2023-05-13T09:53:58.792Z,1006.12
2023-05-13T09:54:58.778Z,1006.12
2023-05-13T09:55:58.775Z,1006.12
2023-05-13T09:56:58.761Z,1006.13
2023-05-13T09:58:03.805Z,1006.16
2023-05-13T09:58:58.764Z,1006.07
2023-05-13T09:59:58.737Z,1006.07
2023-05-13T10:00:58.819Z,1006.04
2023-05-13T10:01:58.714Z,1006.09
2023-05-13T10:02:58.788Z,1006.09
2023-05-13T10:03:58.719Z,1006.11
2023-05-13T10:04:58.666Z,1006.14
2023-05-13T10:06:00.515Z,1006.11
2023-05-13T10:06:58.666Z,1006.14
2023-05-13T10:07:58.635Z,1006.18
2023-05-13T10:09:03.660Z,1006.17
2023-05-13T10:09:58.619Z,1006.13
2023-05-13T10:10:58.604Z,1006.19
2023-05-13T10:11:58.603Z,1006.09
2023-05-13T10:12:58.598Z,1006.11
2023-05-13T10:13:58.583Z,1006.05
2023-05-13T10:14:58.566Z,1006.03
2023-05-13T10:15:58.559Z,1006.16
2023-05-13T10:16:58.711Z,1005.99
2023-05-13T10:17:58.560Z,1006.07
2023-05-13T10:18:58.696Z,1006.03
2023-05-13T10:20:03.531Z,1006.10
2023-05-13T10:20:58.501Z,1006.05
2023-05-13T10:21:58.516Z,1005.89
2023-05-13T10:22:58.471Z,1005.98
2023-05-13T10:23:58.467Z,1005.98
2023-05-13T10:24:58.445Z,1005.95
2023-05-13T10:25:58.458Z,1005.95
2023-05-13T10:26:58.425Z,1006.02
2023-05-13T10:27:58.433Z,1005.92
2023-05-13T10:28:58.401Z,1005.97
2023-05-13T10:29:58.401Z,1005.98
2023-05-13T10:31:03.418Z,1006.00
2023-05-13T10:31:58.406Z,1005.94
2023-05-13T10:32:58.440Z,1005.97
2023-05-13T10:33:58.368Z,1005.94
2023-05-13T10:34:58.366Z,1006.03
2023-05-13T10:35:58.362Z,1006.08
2023-05-13T10:36:58.316Z,1006.15
2023-05-13T10:37:58.299Z,1005.82
2023-05-13T10:38:58.299Z,1005.92
2023-05-13T10:39:58.324Z,1005.93
2023-05-13T10:40:58.263Z,1005.96
2023-05-13T10:42:03.287Z,1005.93
2023-05-13T10:42:58.240Z,1006.01
2023-05-13T10:43:58.234Z,1006.13
2023-05-13T10:44:58.239Z,1006.02
2023-05-13T10:45:58.305Z,1006.08
2023-05-13T10:46:58.198Z,1005.88
2023-05-13T10:47:58.400Z,1005.92
2023-05-13T10:48:58.191Z,1006.02
2023-05-13T10:49:58.180Z,1006.04
2023-05-13T10:50:58.176Z,1005.98
2023-05-13T10:51:58.160Z,1005.92
2023-05-13T10:53:03.151Z,1005.88
2023-05-13T10:53:58.121Z,1005.94
2023-05-13T10:54:58.121Z,1005.90
2023-05-13T10:55:58.102Z,1005.89
2023-05-13T10:56:58.090Z,1006.01
2023-05-13T10:57:58.085Z,1006.06
2023-05-13T10:58:58.073Z,1005.93
2023-05-13T10:59:58.067Z,1005.97
2023-05-13T11:00:58.042Z,1005.94
2023-05-13T11:01:58.069Z,1005.98
2023-05-13T11:02:58.102Z,1005.79
2023-05-13T11:04:03.213Z,1005.74
2023-05-13T11:04:58.005Z,1006.16
2023-05-13T11:05:58.015Z,1005.87
2023-05-13T11:06:58.007Z,1005.90
2023-05-13T11:07:57.991Z,1005.95
2023-05-13T11:08:57.962Z,1005.80
2023-05-13T11:09:57.947Z,1005.93
2023-05-13T11:10:57.960Z,1005.89
2023-05-13T11:11:57.942Z,1006.00
2023-05-13T11:12:57.917Z,1005.89
2023-05-13T11:13:57.913Z,1005.74
2023-05-13T11:15:02.915Z,1005.78
2023-05-13T11:15:57.900Z,1005.72
2023-05-13T11:16:57.911Z,1005.70
2023-05-13T11:17:57.976Z,1005.65
2023-05-13T11:18:57.938Z,1005.99
2023-05-13T11:19:57.837Z,1006.06
2023-05-13T11:20:57.844Z,1006.01
2023-05-13T11:21:57.812Z,1005.98
2023-05-13T11:22:57.912Z,1006.00
2023-05-13T11:23:57.824Z,1005.96
2023-05-13T11:24:57.783Z,1005.73
2023-05-13T11:26:02.792Z,1005.68
2023-05-13T11:26:57.767Z,1005.67
2023-05-13T11:27:57.761Z,1005.62
2023-05-13T11:28:57.766Z,1005.70
2023-05-13T11:29:57.733Z,1005.76
2023-05-13T11:30:57.769Z,1005.74
2023-05-13T11:32:00.028Z,1005.81
2023-05-13T11:32:57.754Z,1005.77
2023-05-13T11:33:57.685Z,1005.75
2023-05-13T11:34:57.710Z,1005.70
2023-05-13T11:35:57.667Z,1005.64
2023-05-13T11:37:02.671Z,1005.71
2023-05-13T11:37:59.858Z,1005.65
2023-05-13T11:38:57.652Z,1005.60
2023-05-13T11:39:57.623Z,1005.69
2023-05-13T11:40:57.621Z,1005.69
2023-05-13T11:41:57.613Z,1005.70
2023-05-13T11:42:57.599Z,1005.69
2023-05-13T11:43:57.576Z,1005.68
2023-05-13T11:44:57.560Z,1005.69
2023-05-13T11:45:57.602Z,1005.62
2023-05-13T11:46:57.585Z,1005.67
2023-05-13T11:48:02.597Z,1005.67
2023-05-13T11:48:57.564Z,1005.63
2023-05-13T11:49:57.505Z,1005.69
2023-05-13T11:50:57.519Z,1005.59
2023-05-13T11:51:57.487Z,1005.55
2023-05-13T11:52:57.514Z,1005.68
2023-05-13T11:53:57.459Z,1005.63
2023-05-13T11:54:57.488Z,1005.70
2023-05-13T11:55:57.447Z,1005.64
2023-05-13T11:56:57.429Z,1005.72
2023-05-13T11:57:57.433Z,1005.69
2023-05-13T11:59:02.466Z,1005.65
2023-05-13T11:59:57.438Z,1005.62
2023-05-13T12:00:57.393Z,1005.64
2023-05-13T12:01:57.414Z,1005.66
2023-05-13T12:02:57.503Z,1005.71
2023-05-13T12:03:57.351Z,1005.67
2023-05-13T12:04:57.372Z,1005.71
2023-05-13T12:05:57.368Z,1005.65
2023-05-13T12:06:57.343Z,1005.68
2023-05-13T12:07:57.337Z,1005.66
2023-05-13T12:08:57.299Z,1005.67
2023-05-13T12:10:02.326Z,1005.69
2023-05-13T12:10:57.298Z,1005.64
2023-05-13T12:11:57.294Z,1005.68
2023-05-13T12:12:57.274Z,1005.65
2023-05-13T12:13:57.257Z,1005.67
2023-05-13T12:14:57.232Z,1005.61
2023-05-13T12:15:57.275Z,1005.66
2023-05-13T12:16:57.227Z,1005.65
2023-05-13T12:17:57.255Z,1005.62
2023-05-13T12:18:57.201Z,1005.65
2023-05-13T12:19:57.181Z,1005.59
2023-05-13T12:21:02.200Z,1005.59
2023-05-13T12:21:57.154Z,1005.62
2023-05-13T12:22:57.303Z,1005.67
2023-05-13T12:23:57.140Z,1005.93
2023-05-13T12:24:57.131Z,1005.83
2023-05-13T12:25:57.148Z,1005.85
2023-05-13T12:26:57.105Z,1005.73
2023-05-13T12:27:57.089Z,1005.59
2023-05-13T12:28:57.076Z,1005.54
2023-05-13T12:29:57.078Z,1005.63
2023-05-13T12:30:57.186Z,1005.54
2023-05-13T12:32:02.064Z,1005.58
2023-05-13T12:32:57.089Z,1005.62
2023-05-13T12:33:57.022Z,1005.60
2023-05-13T12:34:57.021Z,1005.62
2023-05-13T12:35:57.029Z,1005.57
2023-05-13T12:36:57.025Z,1005.62
2023-05-13T12:37:56.971Z,1005.63
2023-05-13T12:38:59.846Z,1005.62
2023-05-13T12:39:56.967Z,1005.62
2023-05-13T12:40:56.941Z,1005.69
2023-05-13T12:41:56.957Z,1005.70
2023-05-13T12:43:02.003Z,1005.74
2023-05-13T12:43:56.930Z,1005.68
2023-05-13T12:44:56.932Z,1005.79
2023-05-13T12:45:56.904Z,1005.78
2023-05-13T12:46:56.879Z,1005.70
2023-05-13T12:47:56.973Z,1005.72
2023-05-13T12:48:56.859Z,1005.77
2023-05-13T12:49:56.916Z,1005.71
2023-05-13T12:50:56.830Z,1005.65
2023-05-13T12:51:56.890Z,1005.74
2023-05-13T12:52:56.805Z,1005.62
2023-05-13T12:53:56.834Z,1005.68
2023-05-13T12:54:56.791Z,1005.65
2023-05-13T12:56:01.801Z,1005.66
2023-05-13T12:56:56.766Z,1005.67
2023-05-13T12:57:56.781Z,1005.71
2023-05-13T12:58:56.779Z,1005.65
2023-05-13T12:59:56.754Z,1005.67
2023-05-13T13:00:56.786Z,1005.60
2023-05-13T13:01:56.708Z,1005.67
2023-05-13T13:02:56.867Z,1005.65
2023-05-13T13:03:56.808Z,1005.64
2023-05-13T13:04:56.676Z,1005.62
2023-05-13T13:05:56.672Z,1005.70
2023-05-13T13:07:01.681Z,1005.64
2023-05-13T13:07:56.642Z,1005.59
2023-05-13T13:08:56.637Z,1005.65
2023-05-13T13:09:56.620Z,1005.66
2023-05-13T13:10:56.606Z,1005.70
2023-05-13T13:11:56.625Z,1005.63
2023-05-13T13:12:56.584Z,1005.58
2023-05-13T13:13:56.612Z,1005.55
2023-05-13T13:14:56.565Z,1005.55
2023-05-13T13:15:56.575Z,1005.65
2023-05-13T13:16:56.746Z,1005.60
2023-05-13T13:18:01.692Z,1005.56
2023-05-13T13:18:58.288Z,1005.58
2023-05-13T13:19:56.524Z,1005.57
2023-05-13T13:20:56.506Z,1005.51
2023-05-13T13:21:56.487Z,1005.56
2023-05-13T13:22:56.483Z,1005.53
2023-05-13T13:23:56.490Z,1005.51
2023-05-13T13:24:56.462Z,1005.59
2023-05-13T13:25:56.445Z,1005.59
2023-05-13T13:26:56.680Z,1005.60
2023-05-13T13:27:56.448Z,1005.60
2023-05-13T13:29:01.458Z,1005.46
2023-05-13T13:29:56.417Z,1005.55
2023-05-13T13:30:56.394Z,1005.53
2023-05-13T13:31:56.405Z,1005.52
2023-05-13T13:32:56.389Z,1005.48
2023-05-13T13:33:56.354Z,1005.52
2023-05-13T13:34:56.345Z,1005.48
2023-05-13T13:35:56.355Z,1005.46
2023-05-13T13:36:56.330Z,1005.47
2023-05-13T13:37:56.309Z,1005.47
2023-05-13T13:38:56.303Z,1005.37
2023-05-13T13:40:01.335Z,1005.39
2023-05-13T13:40:56.276Z,1005.44
2023-05-13T13:41:56.302Z,1005.39
2023-05-13T13:42:56.255Z,1005.37
2023-05-13T13:43:56.246Z,1005.30
2023-05-13T13:44:56.253Z,1005.28
2023-05-13T13:45:56.315Z,1005.34
2023-05-13T13:46:56.235Z,1005.27
2023-05-13T13:47:56.268Z,1005.31
2023-05-13T13:48:56.210Z,1005.23
2023-05-13T13:49:56.175Z,1005.27
2023-05-13T13:51:01.200Z,1005.26
2023-05-13T13:51:56.175Z,1005.23
2023-05-13T13:52:56.148Z,1005.25
2023-05-13T13:53:56.175Z,1005.23
2023-05-13T13:54:56.130Z,1005.20
2023-05-13T13:55:56.114Z,1005.19
2023-05-13T13:56:56.113Z,1005.24
2023-05-13T13:57:56.095Z,1005.16
2023-05-13T13:58:56.081Z,1005.23
2023-05-13T13:59:56.083Z,1005.25
2023-05-13T14:00:56.116Z,1005.19
2023-05-13T14:02:01.140Z,1005.24
2023-05-13T14:02:56.102Z,1005.18
2023-05-13T14:03:56.430Z,1005.29
2023-05-13T14:04:56.063Z,1005.26
2023-05-13T14:05:56.265Z,1005.26
2023-05-13T14:06:55.990Z,1005.33
2023-05-13T14:07:56.192Z,1005.23
2023-05-13T14:08:55.978Z,1005.23
2023-05-13T14:09:56.048Z,1005.28
2023-05-13T14:10:55.948Z,1005.31
2023-05-13T14:11:55.938Z,1005.28
2023-05-13T14:13:00.962Z,1005.32
2023-05-13T14:13:55.914Z,1005.25
2023-05-13T14:14:56.005Z,1005.26
2023-05-13T14:15:55.923Z,1005.27
2023-05-13T14:16:55.909Z,1005.24
2023-05-13T14:17:55.974Z,1005.23
2023-05-13T14:18:55.954Z,1005.24
2023-05-13T14:19:55.994Z,1005.16
2023-05-13T14:20:55.861Z,1005.18
2023-05-13T14:21:55.827Z,1005.22
2023-05-13T14:22:55.826Z,1005.18
2023-05-13T14:24:00.860Z,1005.16
2023-05-13T14:24:55.994Z,1005.23
2023-05-13T14:25:55.835Z,1005.17
2023-05-13T14:26:55.778Z,1005.12
2023-05-13T14:27:55.785Z,1005.13
2023-05-13T14:28:55.780Z,1005.20
2023-05-13T14:29:55.741Z,1005.21
2023-05-13T14:30:55.734Z,1005.18
2023-05-13T14:31:55.783Z,1005.11
2023-05-13T14:32:55.750Z,1005.12
2023-05-13T14:33:55.762Z,1005.17
2023-05-13T14:35:00.716Z,1005.16
2023-05-13T14:35:55.685Z,1005.15
2023-05-13T14:36:55.678Z,1005.10
2023-05-13T14:37:55.667Z,1005.21
2023-05-13T14:38:55.662Z,1005.17
2023-05-13T14:39:55.653Z,1005.13
2023-05-13T14:40:55.629Z,1005.19
2023-05-13T14:41:55.614Z,1005.17
2023-05-13T14:42:55.610Z,1005.18
2023-05-13T14:43:55.589Z,1005.14
2023-05-13T14:44:55.578Z,1005.18
2023-05-13T14:46:00.635Z,1005.19
2023-05-13T14:46:55.591Z,1005.24
2023-05-13T14:47:55.578Z,1005.31
2023-05-13T14:48:55.555Z,1005.27
2023-05-13T14:49:55.527Z,1005.20
2023-05-13T14:50:55.519Z,1005.23
2023-05-13T14:51:55.531Z,1005.26
2023-05-13T14:52:55.499Z,1005.23
2023-05-13T14:53:55.472Z,1005.16
2023-05-13T14:54:55.468Z,1005.17
2023-05-13T14:55:55.452Z,1005.13
2023-05-13T14:57:00.496Z,1005.19
2023-05-13T14:57:55.427Z,1005.14
2023-05-13T14:58:55.424Z,1005.19
2023-05-13T14:59:55.409Z,1005.11
2023-05-13T15:00:55.426Z,1005.19
2023-05-13T15:01:55.476Z,1005.29
2023-05-13T15:02:55.548Z,1005.27
2023-05-13T15:03:55.361Z,1005.33
2023-05-13T15:04:55.376Z,1005.20
2023-05-13T15:05:55.357Z,1005.26
2023-05-13T15:06:55.337Z,1005.28
2023-05-13T15:08:00.342Z,1005.11
2023-05-13T15:08:55.330Z,1005.14
2023-05-13T15:09:55.297Z,1005.24
2023-05-13T15:10:55.293Z,1005.21
2023-05-13T15:11:55.268Z,1005.22
2023-05-13T15:12:55.265Z,1005.25
2023-05-13T15:13:55.254Z,1005.17
2023-05-13T15:14:55.285Z,1005.15
2023-05-13T15:15:55.240Z,1005.17
2023-05-13T15:16:55.274Z,1005.22
2023-05-13T15:17:55.270Z,1005.21
2023-05-13T15:19:00.280Z,1005.22
2023-05-13T15:19:55.200Z,1005.11
2023-05-13T15:20:55.218Z,1005.13
2023-05-13T15:21:55.172Z,1005.13
2023-05-13T15:22:55.153Z,1005.16
2023-05-13T15:23:55.152Z,1005.11
2023-05-13T15:24:55.142Z,1005.11
2023-05-13T15:25:55.116Z,1005.14
2023-05-13T15:26:55.125Z,1005.04
2023-05-13T15:27:55.097Z,1005.14
2023-05-13T15:28:55.090Z,1005.11
2023-05-13T15:30:00.128Z,1005.15
2023-05-13T15:30:55.125Z,1005.06
2023-05-13T15:31:55.049Z,1005.13
2023-05-13T15:32:55.129Z,1005.05
2023-05-13T15:33:55.044Z,1005.09
2023-05-13T15:34:55.028Z,1005.02
2023-05-13T15:35:55.010Z,1005.12
2023-05-13T15:36:55.020Z,1005.08
2023-05-13T15:37:55.000Z,1005.08
2023-05-13T15:38:55.050Z,1005.09
2023-05-13T15:39:54.976Z,1005.08
2023-05-13T15:41:00.280Z,1004.96
2023-05-13T15:41:54.940Z,1005.02
2023-05-13T15:42:54.930Z,1005.03
2023-05-13T15:43:54.932Z,1004.98
2023-05-13T15:44:54.921Z,1004.96
2023-05-13T15:45:55.001Z,1004.96
2023-05-13T15:46:55.008Z,1004.96
2023-05-13T15:47:54.913Z,1004.89
2023-05-13T15:48:54.875Z,1004.91
2023-05-13T15:49:54.868Z,1004.88
2023-05-13T15:50:54.864Z,1004.92
2023-05-13T15:51:59.880Z,1004.95
2023-05-13T15:52:54.828Z,1004.88
2023-05-13T15:53:54.834Z,1004.84
2023-05-13T15:54:54.799Z,1004.82
2023-05-13T15:55:54.786Z,1004.78
2023-05-13T15:56:54.802Z,1004.87
2023-05-13T15:57:54.771Z,1004.81
2023-05-13T15:58:54.762Z,1004.85
2023-05-13T15:59:54.754Z,1004.84
2023-05-13T16:00:54.747Z,1004.82
2023-05-13T16:01:54.734Z,1004.90
2023-05-13T16:02:59.808Z,1004.87
2023-05-13T16:03:54.735Z,1004.91
2023-05-13T16:04:54.684Z,1004.89
2023-05-13T16:05:54.675Z,1004.94
2023-05-13T16:06:54.672Z,1004.87
2023-05-13T16:07:54.678Z,1004.90
2023-05-13T16:08:56.404Z,1004.92
2023-05-13T16:09:54.639Z,1004.91
2023-05-13T16:10:54.636Z,1004.89
2023-05-13T16:11:54.609Z,1004.82
2023-05-13T16:12:54.619Z,1004.85
2023-05-13T16:13:59.602Z,1005.01
2023-05-13T16:14:54.678Z,1005.09
2023-05-13T16:15:54.630Z,1005.21
2023-05-13T16:16:54.572Z,1005.20
2023-05-13T16:17:54.677Z,1005.25
2023-05-13T16:18:54.599Z,1005.23
2023-05-13T16:19:54.584Z,1005.23
2023-05-13T16:20:54.525Z,1005.20
2023-05-13T16:21:54.561Z,1005.23
2023-05-13T16:22:54.488Z,1005.24
2023-05-13T16:23:54.498Z,1005.20
2023-05-13T16:24:59.490Z,1005.19
2023-05-13T16:25:54.505Z,1005.16
2023-05-13T16:26:54.639Z,1005.17
2023-05-13T16:27:54.492Z,1005.09
2023-05-13T16:28:54.463Z,1005.16
2023-05-13T16:29:54.511Z,1005.19
2023-05-13T16:30:55.415Z,1005.15
2023-05-13T16:31:54.516Z,1005.14
2023-05-13T16:32:54.560Z,1005.24
2023-05-13T16:33:54.363Z,1005.18
2023-05-13T16:34:54.356Z,1005.18
2023-05-13T16:35:59.396Z,1005.15
2023-05-13T16:36:54.421Z,1005.18
2023-05-13T16:37:54.372Z,1005.30
2023-05-13T16:38:54.305Z,1005.23
2023-05-13T16:39:54.326Z,1005.24
2023-05-13T16:40:54.300Z,1005.16
2023-05-13T16:41:54.270Z,1005.09
2023-05-13T16:42:56.254Z,1005.07
2023-05-13T16:43:54.401Z,1005.07
2023-05-13T16:44:54.240Z,1005.13
2023-05-13T16:45:54.239Z,1005.09
2023-05-13T16:46:59.237Z,1005.01
2023-05-13T16:47:54.303Z,1004.96
2023-05-13T16:48:54.221Z,1005.00
2023-05-13T16:49:54.232Z,1004.97
2023-05-13T16:50:54.187Z,1005.04
2023-05-13T16:51:54.166Z,1004.98
2023-05-13T16:52:54.157Z,1004.94
2023-05-13T16:53:54.152Z,1004.92
2023-05-13T16:54:54.901Z,1004.90
2023-05-13T16:55:54.146Z,1004.96
2023-05-13T16:56:54.133Z,1004.80
2023-05-13T16:57:59.114Z,1004.93
2023-05-13T16:58:54.094Z,1004.87
2023-05-13T16:59:54.248Z,1004.85
2023-05-13T17:00:54.185Z,1004.85
2023-05-13T17:01:54.085Z,1004.86
2023-05-13T17:02:54.137Z,1004.86
2023-05-13T17:03:54.036Z,1004.89
2023-05-13T17:04:54.042Z,1004.84
2023-05-13T17:05:54.024Z,1004.84